Flight Track Log - Related Links

Times and Time Zones

All times are in EDT time to prevent confusion due to time zone crossing. See the N75ZM flight status page for this flight to view local times or setup timezone preferences in your user account.

Time Position Orientation Groundspeed Altitude Reporting Facility
EDT Latitude Longitude Course Direction KTS MPH feet Rate Location/Type
Tue 01:28:00 PM 33.9334 -81.3655 270° West  Level FlightAware
Tue 01:29:00 PM 33.9333 -81.4147 270° West  Level FlightAware
Tue 01:30:00 PM 33.9333 -81.4639 270° West  Level FlightAware
Tue 01:31:00 PM 33.9334 -81.5130 270° West  Level FlightAware
Tue 01:32:00 PM 33.9334 -81.5622 270° West  Level FlightAware
Tue 01:33:00 PM 33.9334 -81.6115 270° West  Level FlightAware
Tue 01:34:00 PM 33.9334 -81.6607 270° West  Level FlightAware
Tue 01:35:00 PM 33.9334 -81.7098 270° West  Level FlightAware
Tue 01:36:00 PM 33.9333 -81.7590 270° West  Level FlightAware
Tue 01:37:00 PM 33.9334 -81.8082 270° West  Level FlightAware
Tue 01:38:00 PM 33.9334 -81.8574 270° West  Level FlightAware
Tue 01:39:00 PM 33.9334 -81.9066 270° West  Level FlightAware
Tue 01:40:00 PM 33.9268 -81.9552 261° West  Level FlightAware
Tue 01:41:00 PM 33.9201 -82.0037 261° West  Level FlightAware
Tue 01:42:00 PM 33.9135 -82.0522 261° West  Level FlightAware
Tue 01:43:00 PM 33.9068 -82.1007 261° West  Level FlightAware
Tue 01:44:00 PM 33.9000 -82.1508 272° West  Level FlightAware
Tue 01:45:00 PM 33.9013 -82.2000 272° West  Level FlightAware
Tue 01:46:00 PM 33.9026 -82.2491 272° West  Level FlightAware
Tue 01:47:00 PM 33.9039 -82.2983 272° West  Level FlightAware
Tue 01:48:00 PM 33.9051 -82.3474 272° West  Level FlightAware
Tue 01:49:00 PM 33.9063 -82.3966 272° West  Level FlightAware
Tue 01:50:00 PM 33.9075 -82.4457 272° West  Level FlightAware
Tue 01:51:00 PM 33.9087 -82.4949 272° West  Level FlightAware
Tue 01:52:00 PM 33.9099 -82.5440 272° West  Level FlightAware
Tue 01:53:00 PM 33.9110 -82.5932 272° West  Level FlightAware
Tue 01:54:00 PM 33.9121 -82.6423 272° West  Level FlightAware
Tue 01:55:00 PM 33.9132 -82.6915 272° West  Level FlightAware
Tue 01:56:00 PM 33.9143 -82.7406 272° West  Level FlightAware
Tue 01:57:00 PM 33.9154 -82.7898 272° West  Level FlightAware
Tue 01:57:33 PM 33.9333 -82.8000 273° West 154 177 8,100  Level Atlanta TRACON
Tue 01:58:00 PM 33.9164 -82.8390 271° West  Level FlightAware
Tue 01:58:33 PM 33.9333 -82.8500 270° West 156 180 8,200  Level Atlanta TRACON
Tue 01:59:00 PM 33.9181 -82.8881 273° West  Level FlightAware
Tue 01:59:33 PM 33.9333 -82.9000 270° West 155 178 8,100  Level Atlanta TRACON
Tue 02:00:00 PM 33.9199 -82.9372 273° West  Level FlightAware
Tue 02:00:27 PM 33.9333 -82.9500 270° West 155 178 8,100  Level Atlanta TRACON
Tue 02:01:00 PM 33.9217 -82.9863 273° West  Level FlightAware
Tue 02:01:27 PM 33.9333 -83.0000 270° West 153 176 8,000  Level Atlanta TRACON
Tue 02:02:00 PM 33.9235 -83.0355 273° West  Level FlightAware
Tue 02:02:33 PM 33.9500 -83.0500 292° West 165 190 7,500  Level Atlanta TRACON
Tue 02:03:27 PM 33.9500 -83.1000 270° West 167 192 7,000 -500 Descending Atlanta TRACON
Tue 02:04:21 PM 33.9500 -83.1500 270° West 165 190 6,600 -450 Descending Atlanta TRACON
Tue 02:05:27 PM 33.9500 -83.2167 270° West 155 178 6,100 -238 Descending Atlanta TRACON
Tue 02:06:27 PM 33.9500 -83.2667 270° West 141 162 6,100  Level Atlanta TRACON
Tue 02:07:21 PM 33.9500 -83.3000 270° West 143 165 6,100  Level Atlanta TRACON
Tue 02:08:21 PM 33.9500 -83.3500 270° West 153 176 6,100  Level Atlanta TRACON
Tue 02:09:21 PM 33.9333 -83.4000 248° West 154 177 6,100  Level Atlanta TRACON
Tue 02:10:15 PM 33.9333 -83.4500 270° West 155 178 6,100  Level Atlanta TRACON
Tue 02:11:21 PM 33.9333 -83.5000 270° West 154 177 6,100  Level Atlanta TRACON
Tue 02:12:15 PM 33.9333 -83.5500 270° West 155 178 6,100  Level Atlanta TRACON
Tue 02:13:21 PM 33.9333 -83.6000 270° West 151 174 6,100  Level Atlanta TRACON
Tue 02:14:27 PM 33.9167 -83.6667 253° West 150 173 6,100  Level Atlanta TRACON
Tue 02:15:21 PM 33.9167 -83.7000 270° West 157 181 6,100 -105 Level Atlanta TRACON
Tue 02:16:21 PM 33.9167 -83.7500 270° West 154 177 5,900 -350 Descending Atlanta TRACON
Tue 02:17:21 PM 33.9167 -83.8167 270° West 159 183 5,400 -522 Descending Atlanta TRACON
Tue 02:18:16 PM 33.9167 -83.8500 270° West 159 183 4,900 -526 Descending Atlanta TRACON
Tue 02:19:15 PM 33.9000 -83.9000 248° West 145 167 4,400 -403 Descending Atlanta TRACON
Tue 02:20:15 PM 33.9000 -83.9500 270° West 142 163 4,100 -400 Descending Atlanta TRACON
Tue 02:21:15 PM 33.9000 -84.0000 270° West 142 163 3,600 -500 Descending Atlanta TRACON
Tue 02:22:15 PM 33.9000 -84.0500 270° West 161 185 3,100 -250 Descending Atlanta TRACON
Tue 02:23:15 PM 33.8833 -84.1000 248° West 153 176 3,100  Level Atlanta TRACON
Tue 02:24:16 PM 33.8833 -84.1500 270° West 146 168 3,100 -189 Level Atlanta TRACON
Tue 02:25:22 PM 33.8833 -84.2000 270° West 152 175 2,700 -450 Descending Atlanta TRACON
Tue 02:26:16 PM 33.9000 -84.2500 292° West 151 174 2,200 -500 Descending Atlanta TRACON
Tue 02:27:22 PM 33.9000 -84.2833 270° West 103 119 1,700 -455 Descending Atlanta TRACON
Tue 02:29:00 PM 33.8667 -84.3000 270° West  Level FlightAware
Tue 02:36:00 PM 33.8756 -84.3020 270° West  Level Estimated

Login

Don't have an account? Register now (free) for customized features, flight alerts, and more!